createdAt,value
2019-04-11T04:00:39.455Z,89.51
2019-04-11T04:03:06.048Z,89.16
2019-04-11T04:05:34.639Z,90.23
2019-04-11T04:08:01.672Z,89.35
2019-04-11T04:10:29.642Z,88.75
2019-04-11T04:12:55.980Z,88.73
2019-04-11T04:15:55.702Z,89.84
2019-04-11T04:18:12.905Z,90.50
2019-04-11T04:20:43.879Z,90.32
2019-04-11T04:23:16.655Z,90.59
2019-04-11T04:25:44.976Z,90.54
2019-04-11T04:28:11.749Z,90.29
2019-04-11T04:30:38.964Z,90.56
2019-04-11T04:33:07.145Z,91.13
2019-04-11T04:35:33.895Z,91.61
2019-04-11T04:38:00.720Z,90.40
2019-04-11T04:40:43.229Z,90.22
2019-04-11T04:42:57.843Z,91.71
2019-04-11T04:45:23.899Z,90.16
2019-04-11T04:47:56.928Z,89.99
2019-04-11T04:50:18.187Z,90.10
2019-04-11T04:52:44.991Z,89.55
2019-04-11T04:55:12.788Z,89.29
2019-04-11T04:57:40.561Z,89.39
2019-04-11T05:00:07.127Z,89.37
2019-04-11T05:02:34.858Z,89.35
2019-04-11T05:05:01.414Z,89.25
2019-04-11T05:07:32.195Z,89.36
2019-04-11T05:09:56.682Z,89.20
2019-04-11T05:12:23.021Z,89.29
2019-04-11T05:14:49.817Z,89.20
2019-04-11T05:17:17.164Z,89.99
2019-04-11T05:19:43.083Z,88.95
2019-04-11T05:22:08.895Z,89.02
2019-04-11T05:24:34.979Z,89.48
2019-04-11T05:27:00.887Z,89.58
2019-04-11T05:29:27.212Z,88.71
2019-04-11T05:31:53.027Z,89.12
2019-04-11T05:34:18.810Z,88.90
2019-04-11T05:36:44.985Z,88.45
2019-04-11T05:39:10.820Z,88.55
2019-04-11T05:41:37.583Z,89.08
2019-04-11T05:44:09.798Z,87.98
2019-04-11T05:46:40.401Z,88.80
2019-04-11T05:49:02.653Z,87.48
2019-04-11T05:51:36.981Z,88.22
2019-04-11T05:53:57.840Z,88.47
2019-04-11T05:56:28.276Z,87.97
2019-04-11T05:58:56.210Z,87.92
2019-04-11T06:01:24.362Z,87.65
2019-04-11T06:03:53.565Z,87.24
2019-04-11T06:06:37.757Z,87.67
2019-04-11T06:09:11.686Z,87.39
2019-04-11T06:11:54.261Z,87.79
2019-04-11T06:14:23.248Z,88.95
2019-04-11T06:16:55.286Z,88.15
2019-04-11T06:19:20.704Z,86.68
2019-04-11T06:21:55.879Z,86.58
2019-04-11T06:24:32.638Z,86.24
2019-04-11T06:27:00.231Z,87.07
2019-04-11T06:29:29.606Z,86.27
2019-04-11T06:32:03.748Z,86.40
2019-04-11T06:34:31.723Z,87.95
2019-04-11T06:37:01.995Z,86.56
2019-04-11T06:39:29.923Z,86.95
2019-04-11T06:42:01.269Z,86.21
2019-04-11T06:44:34.801Z,88.33
2019-04-11T06:47:18.763Z,86.52
2019-04-11T06:49:46.753Z,87.01
2019-04-11T06:52:14.864Z,87.17
2019-04-11T06:54:59.267Z,88.72
2019-04-11T06:57:32.447Z,86.76
2019-04-11T07:00:00.899Z,86.36
2019-04-11T07:02:28.633Z,86.21
2019-04-11T07:04:56.548Z,85.84
2019-04-11T07:07:26.993Z,86.53
2019-04-11T07:09:53.735Z,86.48
2019-04-11T07:12:24.494Z,86.48
2019-04-11T07:14:55.198Z,85.84
2019-04-11T07:17:40.340Z,86.97
2019-04-11T07:20:08.741Z,85.78
2019-04-11T07:22:53.131Z,86.36
2019-04-11T07:25:26.955Z,86.55
2019-04-11T07:28:11.255Z,84.81
2019-04-11T07:30:56.091Z,85.35
2019-04-11T07:33:31.046Z,85.50
2019-04-11T07:36:12.188Z,86.85
2019-04-11T07:38:49.181Z,86.17
2019-04-11T07:41:27.731Z,86.12
2019-04-11T07:43:54.255Z,85.16
2019-04-11T07:46:22.266Z,86.19
2019-04-11T07:48:48.127Z,86.01
2019-04-11T07:51:16.056Z,85.97
2019-04-11T07:53:43.723Z,86.06
2019-04-11T07:56:09.878Z,86.82
2019-04-11T07:58:50.021Z,88.51
2019-04-11T08:01:21.164Z,86.85
2019-04-11T08:03:57.939Z,86.43
2019-04-11T08:06:42.314Z,86.47
2019-04-11T08:09:24.556Z,86.56
2019-04-11T08:11:52.272Z,88.00
2019-04-11T08:14:22.768Z,85.72
2019-04-11T08:16:53.714Z,86.09
2019-04-11T08:19:33.429Z,85.18
2019-04-11T08:22:01.139Z,85.79
2019-04-11T08:24:32.295Z,86.02
2019-04-11T08:27:17.631Z,85.63
2019-04-11T08:29:44.385Z,84.69
2019-04-11T08:32:15.836Z,86.17
2019-04-11T08:34:47.684Z,86.71
2019-04-11T08:37:33.820Z,85.92
2019-04-11T08:39:59.824Z,84.94
2019-04-11T08:42:37.806Z,85.37
2019-04-11T08:45:06.593Z,85.34
2019-04-11T08:47:45.988Z,84.61
2019-04-11T08:50:03.955Z,84.60
2019-04-11T08:52:32.017Z,84.30
2019-04-11T08:55:04.139Z,85.59
2019-04-11T08:57:31.955Z,85.05
2019-04-11T08:59:59.958Z,86.94
2019-04-11T09:02:26.867Z,85.82
2019-04-11T09:05:07.033Z,85.86
2019-04-11T09:07:30.062Z,86.29
2019-04-11T09:10:04.077Z,87.22
2019-04-11T09:12:30.829Z,86.60
2019-04-11T09:14:58.484Z,86.21
2019-04-11T09:17:26.280Z,85.02
2019-04-11T09:19:55.003Z,87.02
2019-04-11T09:22:26.895Z,85.76
2019-04-11T09:25:09.278Z,85.77
2019-04-11T09:27:53.945Z,86.05
2019-04-11T09:30:21.499Z,86.84
2019-04-11T09:33:06.711Z,85.68
2019-04-11T09:35:35.318Z,85.37
2019-04-11T09:38:04.263Z,84.47
2019-04-11T09:40:36.173Z,84.03
2019-04-11T09:43:09.458Z,83.47
2019-04-11T09:45:37.524Z,84.51
2019-04-11T09:48:22.287Z,82.53
2019-04-11T09:50:58.886Z,82.84
2019-04-11T09:53:26.089Z,82.97
2019-04-11T09:55:53.809Z,82.87
2019-04-11T09:58:27.480Z,82.96
2019-04-11T10:01:12.447Z,82.79
2019-04-11T10:03:38.784Z,82.25
2019-04-11T10:06:19.353Z,82.29
2019-04-11T10:08:47.142Z,83.02
2019-04-11T10:11:28.149Z,82.30
2019-04-11T10:13:57.318Z,82.63
2019-04-11T10:16:26.290Z,82.08
2019-04-11T10:18:59.944Z,81.74
2019-04-11T10:21:28.917Z,81.65
2019-04-11T10:24:16.114Z,81.82
2019-04-11T10:26:42.581Z,82.24
2019-04-11T10:29:13.525Z,82.88
2019-04-11T10:31:44.428Z,82.73
2019-04-11T10:34:21.622Z,82.50
2019-04-11T10:36:49.666Z,82.39
2019-04-11T10:39:27.142Z,82.80
2019-04-11T10:41:57.919Z,82.15
2019-04-11T10:44:43.595Z,82.01
2019-04-11T10:47:12.462Z,82.38
2019-04-11T10:49:58.788Z,82.05
2019-04-11T10:52:26.694Z,83.07
2019-04-11T10:55:03.532Z,83.50
2019-04-11T10:57:40.829Z,82.70
2019-04-11T11:00:25.089Z,82.36
2019-04-11T11:03:07.928Z,82.85
2019-04-11T11:05:43.290Z,82.76
2019-04-11T11:08:15.314Z,82.98
2019-04-11T11:10:41.857Z,82.45
2019-04-11T11:13:16.014Z,83.58
2019-04-11T11:15:44.007Z,83.35
2019-04-11T11:20:54.992Z,83.44
2019-04-11T11:23:21.962Z,84.04
2019-04-11T11:26:02.799Z,83.51
2019-04-11T11:28:30.782Z,83.25
2019-04-11T11:30:58.565Z,83.11
2019-04-11T11:33:26.617Z,83.37
2019-04-11T11:36:01.095Z,83.41
2019-04-11T11:38:28.088Z,82.87
2019-04-11T11:41:12.577Z,83.52
2019-04-11T11:43:39.150Z,83.54
2019-04-11T11:46:07.028Z,84.01
2019-04-11T11:48:35.582Z,84.94
2019-04-11T11:51:03.435Z,83.57
2019-04-11T11:53:49.066Z,85.42
2019-04-11T11:56:15.913Z,83.69
2019-04-11T11:58:51.849Z,84.36
2019-04-11T12:01:16.094Z,84.75
2019-04-11T12:04:01.902Z,84.84
2019-04-11T12:06:29.213Z,84.99
2019-04-11T12:09:14.049Z,83.52
2019-04-11T12:11:42.189Z,85.67
2019-04-11T12:14:27.558Z,84.55
2019-04-11T12:17:08.377Z,83.70
2019-04-11T12:19:49.315Z,83.67
2019-04-11T12:22:10.467Z,82.76
2019-04-11T12:24:41.030Z,83.44
2019-04-11T12:27:12.822Z,82.50
2019-04-11T12:29:42.495Z,82.47
2019-04-11T12:32:10.404Z,83.21
2019-04-11T12:34:45.076Z,83.78
2019-04-11T12:37:14.853Z,83.57
2019-04-11T12:39:57.627Z,82.17
2019-04-11T12:42:25.334Z,82.76
2019-04-11T12:45:09.458Z,82.26
2019-04-11T12:47:38.607Z,83.17
2019-04-11T12:50:23.560Z,83.58
2019-04-11T12:52:51.237Z,83.60
2019-04-11T12:55:18.907Z,82.73
2019-04-11T12:58:03.218Z,84.09
2019-04-11T13:00:43.056Z,84.98
2019-04-11T13:03:27.239Z,83.32
2019-04-11T13:05:54.912Z,83.98
2019-04-11T13:08:31.683Z,84.69
2019-04-11T13:10:57.466Z,84.93
2019-04-11T13:13:27.903Z,84.98
2019-04-11T13:16:11.472Z,85.03
2019-04-11T13:18:36.907Z,83.68
2019-04-11T13:21:07.376Z,82.94
2019-04-11T13:23:41.100Z,84.42
2019-04-11T13:26:11.791Z,83.31
2019-04-11T13:28:38.473Z,84.33
2019-04-11T13:31:06.136Z,83.40
2019-04-11T13:33:31.918Z,83.67
2019-04-11T13:35:59.883Z,82.42
2019-04-11T13:38:27.595Z,82.64
2019-04-11T13:41:11.748Z,83.16
2019-04-11T13:43:41.987Z,83.38
2019-04-11T13:46:12.407Z,83.13
2019-04-11T13:48:57.785Z,82.68
2019-04-11T13:51:30.965Z,82.96
2019-04-11T13:54:16.595Z,83.34
2019-04-11T13:57:00.868Z,83.52
2019-04-11T13:59:34.819Z,83.18
2019-04-11T14:02:03.342Z,82.41
2019-04-11T14:04:45.635Z,82.71
2019-04-11T14:07:13.339Z,81.20
2019-04-11T14:09:41.020Z,80.84
2019-04-11T14:12:07.683Z,80.29
2019-04-11T14:14:35.748Z,80.56
2019-04-11T14:17:17.797Z,80.45
2019-04-11T14:20:02.342Z,81.36
2019-04-11T14:22:30.233Z,83.00
2019-04-11T14:25:03.732Z,82.34
2019-04-11T14:27:30.313Z,81.76
2019-04-11T14:29:58.025Z,81.84
2019-04-11T14:32:25.694Z,81.34
2019-04-11T14:35:02.452Z,82.29
2019-04-11T14:37:38.380Z,83.69
2019-04-11T14:40:10.609Z,82.64
2019-04-11T14:42:55.848Z,81.56
2019-04-11T14:45:36.295Z,81.06
2019-04-11T14:48:19.175Z,81.32
2019-04-11T14:50:47.258Z,81.41
2019-04-11T14:53:23.761Z,80.90
2019-04-11T14:55:51.475Z,81.07
2019-04-11T14:58:19.161Z,82.35
2019-04-11T15:00:45.191Z,81.59
2019-04-11T15:03:24.485Z,81.86
2019-04-11T15:05:52.131Z,81.77
2019-04-11T15:08:34.782Z,81.69
2019-04-11T15:11:20.257Z,81.69
2019-04-11T15:13:48.785Z,81.18
2019-04-11T15:16:19.542Z,81.50
2019-04-11T15:18:47.220Z,80.02
2019-04-11T15:21:20.672Z,81.36
2019-04-11T15:23:46.559Z,79.82
2019-04-11T15:26:30.449Z,79.77
2019-04-11T15:28:58.121Z,80.61
2019-04-11T15:31:39.297Z,79.50
2019-04-11T15:34:17.737Z,79.81
2019-04-11T15:36:51.351Z,80.17
2019-04-11T15:39:44.134Z,79.14
2019-04-11T15:42:09.125Z,79.31
2019-04-11T15:44:41.802Z,79.29
2019-04-11T15:47:10.317Z,79.07
2019-04-11T15:49:47.006Z,79.39
2019-04-11T15:52:14.007Z,79.76
2019-04-11T15:54:53.879Z,81.26
2019-04-11T15:57:21.553Z,79.80
2019-04-11T15:59:49.224Z,79.81
2019-04-11T16:02:16.905Z,79.56
2019-04-11T16:04:47.854Z,79.20
2019-04-11T16:07:15.525Z,79.50
2019-04-11T16:09:45.755Z,78.32
2019-04-11T16:12:19.195Z,78.68
2019-04-11T16:14:44.948Z,78.59
2019-04-11T16:17:27.743Z,78.84
2019-04-11T16:19:55.257Z,79.49
2019-04-11T16:22:28.832Z,79.26
2019-04-11T16:24:58.332Z,79.02
2019-04-11T16:27:29.161Z,77.70
2019-04-11T16:29:59.909Z,77.42
2019-04-11T16:32:27.611Z,77.38
2019-04-11T16:35:04.094Z,78.10
2019-04-11T16:37:30.125Z,77.01
2019-04-11T16:40:14.230Z,77.21
2019-04-11T16:42:41.758Z,77.20
2019-04-11T16:45:18.607Z,77.40
2019-04-11T16:47:49.085Z,77.31
2019-04-11T16:50:14.855Z,77.26
2019-04-11T16:52:40.690Z,77.47
2019-04-11T16:55:09.816Z,77.47
2019-04-11T16:57:34.207Z,76.97
2019-04-11T17:00:00.228Z,77.03
2019-04-11T17:02:28.919Z,77.47
2019-04-11T17:04:55.894Z,77.96
2019-04-11T17:07:35.929Z,77.41
2019-04-11T17:10:04.439Z,77.29
2019-04-11T17:12:30.230Z,77.69
2019-04-11T17:14:56.292Z,78.19
2019-04-11T17:17:22.003Z,78.44
2019-04-11T17:19:47.952Z,78.45
2019-04-11T17:22:13.698Z,78.88
2019-04-11T17:24:39.742Z,79.18
2019-04-11T17:27:05.756Z,79.01
2019-04-11T17:29:31.577Z,79.95
2019-04-11T17:31:57.602Z,81.47
2019-04-11T17:34:23.304Z,80.43
2019-04-11T17:36:49.068Z,80.91
2019-04-11T17:39:14.848Z,81.19
2019-04-11T17:41:42.046Z,79.66
2019-04-11T17:44:08.734Z,80.31
2019-04-11T17:46:34.706Z,79.39
2019-04-11T17:49:00.799Z,79.02
2019-04-11T17:51:26.885Z,79.36
2019-04-11T17:53:55.556Z,79.63
2019-04-11T17:56:24.778Z,79.32
2019-04-11T17:58:48.358Z,79.47
2019-04-11T18:01:14.116Z,79.13
2019-04-11T18:03:42.117Z,79.54
2019-04-11T18:06:07.608Z,79.38
2019-04-11T18:08:33.389Z,79.37
2019-04-11T18:10:59.198Z,79.68
2019-04-11T18:13:24.989Z,80.28
2019-04-11T18:15:50.771Z,80.16
2019-04-11T18:18:16.553Z,79.50
2019-04-11T18:20:42.362Z,78.98
2019-04-11T18:23:08.160Z,79.04
2019-04-11T18:25:33.983Z,78.76
2019-04-11T18:28:00.159Z,80.00
2019-04-11T18:30:25.947Z,80.36
2019-04-11T18:32:51.727Z,79.23
2019-04-11T18:35:17.539Z,79.24
2019-04-11T18:37:43.306Z,80.59
2019-04-11T18:40:10.499Z,79.66
2019-04-11T18:42:36.334Z,79.82
2019-04-11T18:45:04.724Z,81.04
2019-04-11T18:47:30.782Z,80.48
2019-04-11T18:49:56.485Z,81.69
2019-04-11T18:52:24.930Z,81.62
2019-04-11T18:54:49.904Z,80.92
2019-04-11T18:57:16.011Z,81.14
2019-04-11T18:59:41.867Z,82.43
2019-04-11T19:02:09.637Z,82.36
2019-04-11T19:04:35.519Z,83.13
2019-04-11T19:07:01.333Z,81.48
2019-04-11T19:09:27.303Z,82.36
2019-04-11T19:11:53.019Z,81.18
2019-04-11T19:14:18.804Z,81.79
2019-04-11T19:16:45.991Z,82.00
2019-04-11T19:19:19.343Z,82.93
2019-04-11T19:21:45.526Z,82.45
2019-04-11T19:24:12.981Z,82.26
2019-04-11T19:26:39.214Z,82.18
2019-04-11T19:29:06.247Z,82.04
2019-04-11T19:31:32.150Z,81.81
2019-04-11T19:33:57.921Z,81.64
2019-04-11T19:36:23.719Z,81.46
2019-04-11T19:38:50.335Z,81.12
2019-04-11T19:41:18.023Z,81.13
2019-04-11T19:43:44.065Z,81.18
2019-04-11T19:46:10.108Z,82.13
2019-04-11T19:48:36.131Z,82.11
2019-04-11T19:51:02.687Z,82.58
2019-04-11T19:53:32.855Z,82.86
2019-04-11T19:55:58.707Z,82.81
2019-04-11T19:58:26.427Z,82.61
2019-04-11T20:00:53.922Z,82.52
2019-04-11T20:03:21.861Z,82.42
2019-04-11T20:05:47.575Z,82.59
2019-04-11T20:08:13.391Z,83.27
2019-04-11T20:10:39.462Z,82.95
2019-04-11T20:13:05.152Z,82.74
2019-04-11T20:15:36.883Z,82.50
2019-04-11T20:17:58.594Z,83.21
2019-04-11T20:20:24.845Z,82.85
2019-04-11T20:22:58.919Z,83.22
2019-04-11T20:25:18.357Z,83.16
2019-04-11T20:27:44.299Z,83.21
2019-04-11T20:30:10.058Z,83.37
2019-04-11T20:32:35.867Z,83.41
2019-04-11T20:35:01.576Z,83.20
2019-04-11T20:37:38.524Z,84.10
2019-04-11T20:39:54.968Z,83.55
2019-04-11T20:42:23.845Z,83.90
2019-04-11T20:44:48.869Z,84.11
2019-04-11T20:47:16.722Z,83.37
2019-04-11T20:49:48.863Z,83.22
2019-04-11T20:52:14.661Z,83.27
2019-04-11T20:54:40.455Z,83.40
2019-04-11T20:57:06.275Z,83.20
2019-04-11T20:59:34.724Z,84.13
